Time,TemperatureF,DewpointF,PressureIn,WindDirection,WindDirectionDegrees,WindSpeedMPH,WindSpeedGustMPH,Humidity,HourlyPrecipIn,Conditions,Clouds,dailyrainin,SoftwareType,DateUTC
2013-06-19 00:05:00,59.4,57.4,29.88,ENE,74,0.0,0.0,93,0.07,,,0.00,Wunderground v.1.15,2013-06-19 04:05:00,
2013-06-19 00:10:00,59.3,57.3,29.88,East,97,1.0,1.0,93,0.04,,,0.00,Wunderground v.1.15,2013-06-19 04:10:00,
2013-06-19 00:15:00,59.2,57.2,29.88,East,97,0.0,1.0,93,0.00,,,0.00,Wunderground v.1.15,2013-06-19 04:15:00,
2013-06-19 00:20:00,59.2,57.5,29.88,ENE,61,0.0,1.0,94,0.00,,,0.01,Wunderground v.1.15,2013-06-19 04:20:00,
2013-06-19 00:30:00,59.0,57.3,29.87,ESE,119,0.0,0.0,94,0.00,,,0.01,Wunderground v.1.15,2013-06-19 04:30:00,
2013-06-19 00:35:00,59.0,57.3,29.88,ESE,119,0.0,2.0,94,0.00,,,0.01,Wunderground v.1.15,2013-06-19 04:35:00,
2013-06-19 00:40:00,58.9,57.2,29.88,West,273,0.0,0.0,94,0.00,,,0.01,Wunderground v.1.15,2013-06-19 04:40:00,
2013-06-19 00:50:00,58.9,57.2,29.88,WSW,241,0.0,0.0,94,0.00,,,0.01,Wunderground v.1.15,2013-06-19 04:50:00,
2013-06-19 01:00:00,58.8,57.1,29.88,WNW,302,1.0,2.0,94,0.00,,,0.01,Wunderground v.1.15,2013-06-19 05:00:00,
2013-06-19 01:10:00,58.7,57.0,29.87,NW,320,1.0,1.0,94,0.00,,,0.01,Wunderground v.1.15,2013-06-19 05:10:00,
2013-06-19 01:20:00,58.7,57.0,29.88,NW,309,1.0,4.0,94,0.00,,,0.01,Wunderground v.1.15,2013-06-19 05:20:00,
2013-06-19 01:25:00,58.7,57.0,29.88,NW,308,1.0,4.0,94,0.00,,,0.01,Wunderground v.1.15,2013-06-19 05:25:00,
2013-06-19 01:35:00,58.7,57.0,29.88,NW,325,1.0,2.0,94,0.00,,,0.01,Wunderground v.1.15,2013-06-19 05:35:00,
2013-06-19 01:45:00,58.2,56.2,29.88,SE,126,1.0,2.0,93,0.00,,,0.01,Wunderground v.1.15,2013-06-19 05:45:00,
2013-06-19 01:50:00,57.9,55.6,29.88,ESE,113,1.0,1.0,92,0.00,,,0.01,Wunderground v.1.15,2013-06-19 05:50:00,
2013-06-19 02:00:00,57.8,55.5,29.88,SSE,159,0.0,0.0,92,0.00,,,0.01,Wunderground v.1.15,2013-06-19 06:00:00,
2013-06-19 02:10:00,57.8,55.5,29.88,ESE,102,0.0,0.0,92,0.00,,,0.01,Wunderground v.1.15,2013-06-19 06:10:00,
2013-06-19 02:20:00,57.7,55.4,29.88,NW,326,0.0,0.0,92,0.00,,,0.01,Wunderground v.1.15,2013-06-19 06:20:00,
2013-06-19 02:30:00,57.3,54.7,29.88,NW,304,0.0,0.0,91,0.00,,,0.01,Wunderground v.1.15,2013-06-19 06:30:00,
2013-06-19 02:40:00,57.1,54.5,29.88,ENE,76,1.0,1.0,91,0.00,,,0.01,Wunderground v.1.15,2013-06-19 06:40:00,
2013-06-19 02:45:00,57.0,54.4,29.87,ENE,74,1.0,1.0,91,0.00,,,0.02,Wunderground v.1.15,2013-06-19 06:45:00,
2013-06-19 02:55:00,56.8,54.5,29.87,ENE,74,0.0,0.0,92,0.06,,,0.03,Wunderground v.1.15,2013-06-19 06:55:00,
2013-06-19 03:05:00,56.7,54.4,29.87,ENE,77,0.0,0.0,92,0.05,,,0.03,Wunderground v.1.15,2013-06-19 07:05:00,
2013-06-19 03:15:00,56.8,54.8,29.87,East,87,0.0,0.0,93,0.00,,,0.03,Wunderground v.1.15,2013-06-19 07:15:00,
2013-06-19 03:20:00,56.9,54.9,29.86,East,87,0.0,0.0,93,0.00,,,0.03,Wunderground v.1.15,2013-06-19 07:20:00,
2013-06-19 03:30:00,56.9,54.9,29.86,East,87,0.0,0.0,93,0.00,,,0.03,Wunderground v.1.15,2013-06-19 07:30:00,
2013-06-19 03:40:00,57.0,55.0,29.87,East,92,0.0,0.0,93,0.00,,,0.03,Wunderground v.1.15,2013-06-19 07:40:00,
2013-06-19 03:50:00,57.1,55.1,29.87,ESE,123,0.0,0.0,93,0.00,,,0.03,Wunderground v.1.15,2013-06-19 07:50:00,
2013-06-19 03:55:00,57.1,55.4,29.87,ESE,123,0.0,0.0,94,0.00,,,0.03,Wunderground v.1.15,2013-06-19 07:55:00,
2013-06-19 04:00:00,57.2,55.5,29.87,South,178,0.0,0.0,94,0.00,,,0.03,Wunderground v.1.15,2013-06-19 08:00:00,
2013-06-19 04:10:00,57.0,55.3,29.87,East,101,0.0,0.0,94,0.00,,,0.03,Wunderground v.1.15,2013-06-19 08:10:00,
2013-06-19 04:20:00,57.0,55.3,29.87,East,101,0.0,0.0,94,0.00,,,0.03,Wunderground v.1.15,2013-06-19 08:20:00,
2013-06-19 04:30:00,56.9,54.9,29.87,ENE,69,0.0,0.0,93,0.00,,,0.03,Wunderground v.1.15,2013-06-19 08:30:00,
2013-06-19 04:35:00,57.0,55.0,29.87,ESE,119,0.0,0.0,93,0.00,,,0.03,Wunderground v.1.15,2013-06-19 08:35:00,
2013-06-19 04:45:00,57.0,55.0,29.87,SE,134,0.0,1.0,93,0.00,,,0.03,Wunderground v.1.15,2013-06-19 08:45:00,
2013-06-19 04:55:00,57.0,55.0,29.88,SE,137,0.0,0.0,93,0.00,,,0.03,Wunderground v.1.15,2013-06-19 08:55:00,
2013-06-19 05:05:00,57.0,55.0,29.88,WNW,296,0.0,0.0,93,0.00,,,0.03,Wunderground v.1.15,2013-06-19 09:05:00,
2013-06-19 05:10:00,56.9,54.9,29.88,WNW,295,0.0,1.0,93,0.00,,,0.03,Wunderground v.1.15,2013-06-19 09:10:00,
2013-06-19 05:20:00,56.9,54.9,29.88,WNW,295,0.0,0.0,93,0.00,,,0.03,Wunderground v.1.15,2013-06-19 09:20:00,
2013-06-19 05:25:00,56.9,54.9,29.88,WNW,295,0.0,0.0,93,0.00,,,0.03,Wunderground v.1.15,2013-06-19 09:25:00,
2013-06-19 05:35:00,56.9,54.9,29.88,WNW,295,0.0,0.0,93,0.00,,,0.03,Wunderground v.1.15,2013-06-19 09:35:00,
2013-06-19 05:40:00,56.9,54.9,29.88,WNW,295,0.0,0.0,93,0.00,,,0.03,Wunderground v.1.15,2013-06-19 09:40:00,
2013-06-19 05:50:00,56.8,54.8,29.88,WNW,295,0.0,0.0,93,0.00,,,0.03,Wunderground v.1.15,2013-06-19 09:50:00,
2013-06-19 05:55:00,56.8,54.8,29.88,WNW,295,0.0,0.0,93,0.00,,,0.03,Wunderground v.1.15,2013-06-19 09:55:00,
2013-06-19 06:05:00,57.3,55.6,29.89,WNW,295,0.0,0.0,94,0.00,,,0.03,Wunderground v.1.15,2013-06-19 10:05:00,
2013-06-19 06:10:00,57.7,56.0,29.89,WNW,295,0.0,0.0,94,0.00,,,0.03,Wunderground v.1.15,2013-06-19 10:10:00,
2013-06-19 06:20:00,58.5,56.8,29.89,West,263,0.0,0.0,94,0.00,,,0.03,Wunderground v.1.15,2013-06-19 10:20:00,
2013-06-19 06:30:00,59.0,57.0,29.89,NW,311,1.0,4.0,93,0.00,,,0.03,Wunderground v.1.15,2013-06-19 10:30:00,
2013-06-19 06:40:00,59.3,57.3,29.89,SSE,163,1.0,1.0,93,0.00,,,0.03,Wunderground v.1.15,2013-06-19 10:40:00,
2013-06-19 06:45:00,60.2,58.2,29.90,WSW,244,0.0,1.0,93,0.00,,,0.03,Wunderground v.1.15,2013-06-19 10:45:00,
2013-06-19 06:55:00,60.7,58.1,29.90,WNW,298,1.0,4.0,91,0.00,,,0.03,Wunderground v.1.15,2013-06-19 10:55:00,
2013-06-19 07:00:00,60.9,58.3,29.90,NW,321,1.0,1.0,91,0.00,,,0.03,Wunderground v.1.15,2013-06-19 11:00:00,
2013-06-19 07:10:00,61.1,58.1,29.90,WNW,288,2.0,2.0,90,0.00,,,0.03,Wunderground v.1.15,2013-06-19 11:10:00,
2013-06-19 07:15:00,60.7,57.7,29.91,WNW,296,2.0,3.0,90,0.00,,,0.03,Wunderground v.1.15,2013-06-19 11:15:00,
2013-06-19 07:25:00,60.6,57.3,29.91,East,84,2.0,2.0,89,0.00,,,0.03,Wunderground v.1.15,2013-06-19 11:25:00,
2013-06-19 07:30:00,61.1,57.5,29.91,SSW,213,2.0,2.0,88,0.00,,,0.03,Wunderground v.1.15,2013-06-19 11:30:00,
2013-06-19 07:40:00,61.5,57.3,29.91,SSE,154,2.0,2.0,86,0.00,,,0.03,Wunderground v.1.15,2013-06-19 11:40:00,
2013-06-19 07:45:00,61.4,56.5,29.91,SE,142,2.0,2.0,84,0.00,,,0.03,Wunderground v.1.15,2013-06-19 11:45:00,
2013-06-19 07:50:00,61.5,56.3,29.92,ENE,68,2.0,5.0,83,0.00,,,0.03,Wunderground v.1.15,2013-06-19 11:50:00,
2013-06-19 08:00:00,61.9,56.3,29.92,SSW,196,2.0,2.0,82,0.00,,,0.03,Wunderground v.1.15,2013-06-19 12:00:00,
2013-06-19 08:05:00,61.9,56.3,29.92,WNW,297,1.0,2.0,82,0.00,,,0.03,Wunderground v.1.15,2013-06-19 12:05:00,
2013-06-19 08:15:00,62.3,56.0,29.92,NE,55,2.0,6.0,80,0.00,,,0.03,Wunderground v.1.15,2013-06-19 12:15:00,
2013-06-19 08:25:00,62.3,56.0,29.93,East,92,3.0,3.0,80,0.00,,,0.03,Wunderground v.1.15,2013-06-19 12:25:00,
2013-06-19 08:30:00,62.7,56.1,29.93,SE,146,3.0,3.0,79,0.00,,,0.03,Wunderground v.1.15,2013-06-19 12:30:00,
2013-06-19 08:35:00,62.5,55.9,29.93,SE,136,2.0,3.0,79,0.00,,,0.03,Wunderground v.1.15,2013-06-19 12:35:00,
2013-06-19 08:45:00,63.9,56.5,29.94,South,172,2.0,4.0,77,0.00,,,0.03,Wunderground v.1.15,2013-06-19 12:45:00,
2013-06-19 08:50:00,63.4,56.4,29.94,ESE,113,2.0,5.0,78,0.00,,,0.03,Wunderground v.1.15,2013-06-19 12:50:00,
2013-06-19 09:00:00,64.1,56.0,29.94,SE,130,3.0,4.0,75,0.00,,,0.03,Wunderground v.1.15,2013-06-19 13:00:00,
2013-06-19 09:10:00,64.4,55.6,29.94,SE,127,4.0,5.0,73,0.00,,,0.03,Wunderground v.1.15,2013-06-19 13:10:00,
2013-06-19 09:20:00,65.4,54.2,29.95,ENE,63,3.0,5.0,67,0.00,,,0.03,Wunderground v.1.15,2013-06-19 13:20:00,
2013-06-19 09:30:00,65.6,55.5,29.95,ESE,118,4.0,4.0,70,0.00,,,0.03,Wunderground v.1.15,2013-06-19 13:30:00,
2013-06-19 09:40:00,66.6,54.9,29.95,SE,134,2.0,2.0,66,0.00,,,0.03,Wunderground v.1.15,2013-06-19 13:40:00,
2013-06-19 09:50:00,67.1,55.4,29.95,West,277,3.0,3.0,66,0.00,,,0.03,Wunderground v.1.15,2013-06-19 13:50:00,
2013-06-19 10:00:00,67.5,53.6,29.95,NE,55,3.0,3.0,61,0.00,,,0.03,Wunderground v.1.15,2013-06-19 14:00:00,
2013-06-19 10:05:00,68.0,54.0,29.96,East,86,2.0,3.0,61,0.00,,,0.03,Wunderground v.1.15,2013-06-19 14:05:00,
2013-06-19 10:15:00,68.0,53.1,29.96,SSE,168,2.0,3.0,59,0.00,,,0.03,Wunderground v.1.15,2013-06-19 14:15:00,
2013-06-19 10:20:00,68.6,53.7,29.96,SSE,157,2.0,2.0,59,0.00,,,0.03,Wunderground v.1.15,2013-06-19 14:20:00,
2013-06-19 10:30:00,69.6,54.6,29.96,NW,317,2.0,2.0,59,0.00,,,0.03,Wunderground v.1.15,2013-06-19 14:30:00,
2013-06-19 10:35:00,69.9,53.0,29.96,SSE,150,1.0,2.0,55,0.00,,,0.03,Wunderground v.1.15,2013-06-19 14:35:00,
2013-06-19 10:40:00,69.8,53.9,29.96,SE,135,1.0,1.0,57,0.00,,,0.03,Wunderground v.1.15,2013-06-19 14:40:00,
2013-06-19 10:50:00,69.7,51.3,29.97,East,89,2.0,3.0,52,0.00,,,0.03,Wunderground v.1.15,2013-06-19 14:50:00,
2013-06-19 11:00:00,69.5,51.1,29.97,ESE,122,4.0,5.0,52,0.00,,,0.03,Wunderground v.1.15,2013-06-19 15:00:00,
2013-06-19 11:05:00,69.0,51.7,29.97,ESE,111,4.0,5.0,54,0.00,,,0.03,Wunderground v.1.15,2013-06-19 15:05:00,
2013-06-19 11:10:00,69.7,51.8,29.97,East,83,3.0,3.0,53,0.00,,,0.03,Wunderground v.1.15,2013-06-19 15:10:00,
2013-06-19 11:20:00,70.3,51.3,29.97,SE,126,2.0,4.0,51,0.00,,,0.03,Wunderground v.1.15,2013-06-19 15:20:00,
2013-06-19 11:30:00,70.3,50.2,29.97,NNE,24,3.0,3.0,49,0.00,,,0.03,Wunderground v.1.15,2013-06-19 15:30:00,
2013-06-19 11:35:00,70.0,51.0,29.97,ESE,118,4.0,4.0,51,0.00,,,0.03,Wunderground v.1.15,2013-06-19 15:35:00,
2013-06-19 11:40:00,70.7,50.6,29.97,ESE,104,3.0,7.0,49,0.00,,,0.03,Wunderground v.1.15,2013-06-19 15:40:00,
2013-06-19 11:50:00,71.0,52.0,29.96,SE,138,3.0,3.0,51,0.00,,,0.03,Wunderground v.1.15,2013-06-19 15:50:00,
2013-06-19 11:55:00,72.2,53.1,29.96,ENE,75,2.0,3.0,51,0.00,,,0.03,Wunderground v.1.15,2013-06-19 15:55:00,
2013-06-19 12:05:00,71.1,50.4,29.96,ESE,119,3.0,4.0,48,0.00,,,0.03,Wunderground v.1.15,2013-06-19 16:05:00,
2013-06-19 12:15:00,71.6,51.4,29.97,ESE,119,3.0,3.0,49,0.00,,,0.03,Wunderground v.1.15,2013-06-19 16:15:00,
2013-06-19 12:20:00,71.9,52.8,29.96,SE,127,3.0,3.0,51,0.00,,,0.03,Wunderground v.1.15,2013-06-19 16:20:00,
2013-06-19 12:30:00,72.1,50.2,29.96,ESE,120,2.0,2.0,46,0.00,,,0.03,Wunderground v.1.15,2013-06-19 16:30:00,
2013-06-19 12:35:00,72.0,51.8,29.96,ESE,115,2.0,2.0,49,0.00,,,0.03,Wunderground v.1.15,2013-06-19 16:35:00,
2013-06-19 12:45:00,71.4,51.2,29.97,ESE,123,2.0,4.0,49,0.00,,,0.03,Wunderground v.1.15,2013-06-19 16:45:00,
2013-06-19 12:55:00,70.8,49.0,29.97,ESE,121,2.0,3.0,46,0.00,,,0.03,Wunderground v.1.15,2013-06-19 16:55:00,
2013-06-19 13:05:00,71.4,50.7,29.96,SE,142,1.0,2.0,48,0.00,,,0.03,Wunderground v.1.15,2013-06-19 17:05:00,
2013-06-19 13:15:00,71.3,50.0,29.96,NNW,340,2.0,2.0,47,0.00,,,0.03,Wunderground v.1.15,2013-06-19 17:15:00,
2013-06-19 13:25:00,71.5,50.8,29.96,SSW,204,2.0,2.0,48,0.00,,,0.03,Wunderground v.1.15,2013-06-19 17:25:00,
2013-06-19 13:30:00,72.1,49.6,29.96,WNW,283,1.0,1.0,45,0.00,,,0.03,Wunderground v.1.15,2013-06-19 17:30:00,
2013-06-19 13:40:00,71.9,49.4,29.96,NE,53,2.0,3.0,45,0.00,,,0.03,Wunderground v.1.15,2013-06-19 17:40:00,
2013-06-19 13:50:00,71.6,48.5,29.96,SE,130,2.0,2.0,44,0.00,,,0.03,Wunderground v.1.15,2013-06-19 17:50:00,
2013-06-19 14:00:00,72.5,49.3,29.96,NW,304,1.0,2.0,44,0.00,,,0.03,Wunderground v.1.15,2013-06-19 18:00:00,
2013-06-19 14:10:00,72.2,49.7,29.97,NW,309,1.0,2.0,45,0.00,,,0.03,Wunderground v.1.15,2013-06-19 18:10:00,
2013-06-19 14:20:00,72.7,48.9,29.97,NW,318,2.0,2.0,43,0.00,,,0.03,Wunderground v.1.15,2013-06-19 18:20:00,
2013-06-19 14:25:00,72.7,48.9,29.97,East,84,2.0,2.0,43,0.00,,,0.03,Wunderground v.1.15,2013-06-19 18:25:00,
2013-06-19 14:35:00,74.0,51.3,29.97,SSE,157,1.0,6.0,45,0.00,,,0.03,Wunderground v.1.15,2013-06-19 18:35:00,
2013-06-19 14:45:00,71.9,51.1,29.97,SE,127,3.0,7.0,48,0.00,,,0.03,Wunderground v.1.15,2013-06-19 18:45:00,
2013-06-19 14:55:00,71.0,50.3,29.98,East,86,2.0,3.0,48,0.00,,,0.03,Wunderground v.1.15,2013-06-19 18:55:00,
2013-06-19 15:00:00,70.8,51.2,29.98,SE,126,2.0,3.0,50,0.00,,,0.03,Wunderground v.1.15,2013-06-19 19:00:00,
2013-06-19 15:10:00,70.9,50.2,29.98,SE,135,3.0,5.0,48,0.00,,,0.03,Wunderground v.1.15,2013-06-19 19:10:00,
2013-06-19 15:20:00,70.4,50.9,29.98,South,171,2.0,2.0,50,0.00,,,0.03,Wunderground v.1.15,2013-06-19 19:20:00,
2013-06-19 15:25:00,70.8,51.8,29.98,SSW,196,1.0,4.0,51,0.00,,,0.03,Wunderground v.1.15,2013-06-19 19:25:00,
2013-06-19 15:30:00,71.0,50.3,29.98,SE,137,2.0,2.0,48,0.00,,,0.03,Wunderground v.1.15,2013-06-19 19:30:00,
2013-06-19 15:35:00,71.0,50.9,29.98,ESE,105,2.0,3.0,49,0.00,,,0.03,Wunderground v.1.15,2013-06-19 19:35:00,
2013-06-19 15:40:00,71.6,50.3,29.98,SW,217,2.0,2.0,47,0.00,,,0.03,Wunderground v.1.15,2013-06-19 19:40:00,
2013-06-19 15:45:00,71.5,50.8,29.98,SE,138,1.0,2.0,48,0.00,,,0.03,Wunderground v.1.15,2013-06-19 19:45:00,
2013-06-19 15:55:00,71.3,50.6,29.98,SSE,151,3.0,3.0,48,0.00,,,0.03,Wunderground v.1.15,2013-06-19 19:55:00,
2013-06-19 16:00:00,71.1,50.4,29.98,South,174,2.0,2.0,48,0.00,,,0.03,Wunderground v.1.15,2013-06-19 20:00:00,
2013-06-19 16:05:00,71.1,50.4,29.98,SSE,152,2.0,2.0,48,0.00,,,0.03,Wunderground v.1.15,2013-06-19 20:05:00,
2013-06-19 16:15:00,71.0,49.7,29.98,SSW,200,2.0,2.0,47,0.00,,,0.03,Wunderground v.1.15,2013-06-19 20:15:00,
2013-06-19 16:20:00,71.2,49.9,29.98,East,83,2.0,2.0,47,0.00,,,0.03,Wunderground v.1.15,2013-06-19 20:20:00,
2013-06-19 16:25:00,71.7,49.8,29.98,SW,227,2.0,2.0,46,0.00,,,0.03,Wunderground v.1.15,2013-06-19 20:25:00,
2013-06-19 16:30:00,72.3,50.9,29.98,SE,128,2.0,2.0,47,0.00,,,0.03,Wunderground v.1.15,2013-06-19 20:30:00,
2013-06-19 16:40:00,71.8,50.5,29.98,SE,140,1.0,2.0,47,0.00,,,0.03,Wunderground v.1.15,2013-06-19 20:40:00,
2013-06-19 16:45:00,71.9,50.0,29.98,South,178,1.0,2.0,46,0.00,,,0.03,Wunderground v.1.15,2013-06-19 20:45:00,
2013-06-19 16:50:00,71.7,50.4,29.98,SW,220,2.0,4.0,47,0.00,,,0.03,Wunderground v.1.15,2013-06-19 20:50:00,
2013-06-19 16:55:00,71.7,50.4,29.98,SE,138,2.0,4.0,47,0.00,,,0.03,Wunderground v.1.15,2013-06-19 20:55:00,
2013-06-19 17:00:00,71.6,49.7,29.98,SSW,192,2.0,2.0,46,0.00,,,0.03,Wunderground v.1.15,2013-06-19 21:00:00,
2013-06-19 17:05:00,71.7,49.8,29.98,SSW,211,2.0,4.0,46,0.00,,,0.03,Wunderground v.1.15,2013-06-19 21:05:00,
2013-06-19 17:10:00,71.6,49.7,29.98,South,170,3.0,3.0,46,0.00,,,0.03,Wunderground v.1.15,2013-06-19 21:10:00,
2013-06-19 17:15:00,71.4,49.5,29.98,SSW,203,3.0,3.0,46,0.00,,,0.03,Wunderground v.1.15,2013-06-19 21:15:00,
2013-06-19 17:20:00,71.4,49.5,29.98,WSW,239,2.0,2.0,46,0.00,,,0.03,Wunderground v.1.15,2013-06-19 21:20:00,
2013-06-19 17:25:00,71.7,49.2,29.97,SE,132,2.0,2.0,45,0.00,,,0.03,Wunderground v.1.15,2013-06-19 21:25:00,
2013-06-19 17:30:00,71.9,50.0,29.97,SE,138,2.0,3.0,46,0.00,,,0.03,Wunderground v.1.15,2013-06-19 21:30:00,
2013-06-19 17:40:00,71.7,49.2,29.97,SSW,211,2.0,2.0,45,0.00,,,0.03,Wunderground v.1.15,2013-06-19 21:40:00,
2013-06-19 17:50:00,71.7,49.8,29.98,SSE,151,2.0,2.0,46,0.00,,,0.03,Wunderground v.1.15,2013-06-19 21:50:00,
2013-06-19 17:55:00,71.9,50.0,29.98,SE,132,1.0,2.0,46,0.00,,,0.03,Wunderground v.1.15,2013-06-19 21:55:00,
2013-06-19 18:00:00,71.8,49.3,29.98,South,169,1.0,1.0,45,0.00,,,0.03,Wunderground v.1.15,2013-06-19 22:00:00,
2013-06-19 18:10:00,71.6,49.1,29.98,SE,144,1.0,3.0,45,0.00,,,0.03,Wunderground v.1.15,2013-06-19 22:10:00,
2013-06-19 18:20:00,71.6,49.1,29.99,ESE,107,2.0,2.0,45,0.00,,,0.03,Wunderground v.1.15,2013-06-19 22:20:00,
2013-06-19 18:25:00,71.6,49.7,29.99,East,91,2.0,2.0,46,0.00,,,0.03,Wunderground v.1.15,2013-06-19 22:25:00,
2013-06-19 18:35:00,71.6,49.7,29.99,SE,140,2.0,2.0,46,0.00,,,0.03,Wunderground v.1.15,2013-06-19 22:35:00,
2013-06-19 18:40:00,71.3,50.0,29.99,SE,135,2.0,2.0,47,0.00,,,0.03,Wunderground v.1.15,2013-06-19 22:40:00,
2013-06-19 18:50:00,71.1,49.8,30.00,SE,142,2.0,2.0,47,0.00,,,0.03,Wunderground v.1.15,2013-06-19 22:50:00,
2013-06-19 18:55:00,71.2,50.5,30.00,East,90,1.0,5.0,48,0.00,,,0.03,Wunderground v.1.15,2013-06-19 22:55:00,
2013-06-19 19:05:00,71.0,50.3,30.00,South,188,2.0,2.0,48,0.00,,,0.03,Wunderground v.1.15,2013-06-19 23:05:00,
2013-06-19 19:15:00,70.4,49.8,30.00,South,178,2.0,2.0,48,0.00,,,0.03,Wunderground v.1.15,2013-06-19 23:15:00,
2013-06-19 19:20:00,70.0,50.0,30.00,SSW,192,1.0,1.0,49,0.00,,,0.03,Wunderground v.1.15,2013-06-19 23:20:00,
2013-06-19 19:25:00,69.8,50.3,30.00,South,179,1.0,1.0,50,0.00,,,0.03,Wunderground v.1.15,2013-06-19 23:25:00,
2013-06-19 19:35:00,69.4,50.5,30.00,SSE,160,1.0,1.0,51,0.00,,,0.03,Wunderground v.1.15,2013-06-19 23:35:00,
2013-06-19 19:40:00,69.3,50.9,30.01,SE,140,1.0,2.0,52,0.00,,,0.03,Wunderground v.1.15,2013-06-19 23:40:00,
2013-06-19 19:50:00,69.1,50.7,30.01,South,169,1.0,1.0,52,0.00,,,0.03,Wunderground v.1.15,2013-06-19 23:50:00,
2013-06-19 19:55:00,69.0,50.6,30.01,South,169,1.0,2.0,52,0.00,,,0.03,Wunderground v.1.15,2013-06-19 23:55:00,
2013-06-19 20:05:00,68.9,51.1,30.02,South,180,1.0,1.0,53,0.00,,,0.03,Wunderground v.1.15,2013-06-20 00:05:00,
2013-06-19 20:10:00,68.8,51.0,30.02,South,180,0.0,0.0,53,0.00,,,0.03,Wunderground v.1.15,2013-06-20 00:10:00,
2013-06-19 20:20:00,68.5,51.2,30.02,SE,128,0.0,0.0,54,0.00,,,0.03,Wunderground v.1.15,2013-06-20 00:20:00,
2013-06-19 20:25:00,68.3,51.0,30.02,SE,128,0.0,0.0,54,0.00,,,0.03,Wunderground v.1.15,2013-06-20 00:25:00,
2013-06-19 20:35:00,67.9,50.6,30.03,SE,128,0.0,0.0,54,0.00,,,0.03,Wunderground v.1.15,2013-06-20 00:35:00,
2013-06-19 20:45:00,67.6,50.9,30.03,SE,128,0.0,1.0,55,0.00,,,0.03,Wunderground v.1.15,2013-06-20 00:45:00,
2013-06-19 20:50:00,67.2,51.0,30.04,SE,128,0.0,0.0,56,0.00,,,0.03,Wunderground v.1.15,2013-06-20 00:50:00,
2013-06-19 21:00:00,66.4,51.2,30.04,SE,128,0.0,0.0,58,0.00,,,0.03,Wunderground v.1.15,2013-06-20 01:00:00,
2013-06-19 21:10:00,66.0,50.8,30.05,SE,128,0.0,0.0,58,0.00,,,0.03,Wunderground v.1.15,2013-06-20 01:10:00,
2013-06-19 21:20:00,65.8,51.1,30.06,SE,128,0.0,0.0,59,0.00,,,0.03,Wunderground v.1.15,2013-06-20 01:20:00,
2013-06-19 21:30:00,65.4,51.1,30.06,SE,141,0.0,0.0,60,0.00,,,0.03,Wunderground v.1.15,2013-06-20 01:30:00,
2013-06-19 21:40:00,64.8,51.5,30.07,SE,141,0.0,0.0,62,0.00,,,0.03,Wunderground v.1.15,2013-06-20 01:40:00,
2013-06-19 21:50:00,64.3,51.9,30.07,SE,141,0.0,0.0,64,0.00,,,0.03,Wunderground v.1.15,2013-06-20 01:50:00,
2013-06-19 22:00:00,64.0,52.4,30.08,SE,141,0.0,0.0,66,0.00,,,0.03,Wunderground v.1.15,2013-06-20 02:00:00,
2013-06-19 22:05:00,63.7,52.5,30.08,SE,141,0.0,0.0,67,0.00,,,0.03,Wunderground v.1.15,2013-06-20 02:05:00,
2013-06-19 22:15:00,63.4,52.7,30.08,SE,141,0.0,0.0,68,0.00,,,0.03,Wunderground v.1.15,2013-06-20 02:15:00,
2013-06-19 22:20:00,63.2,52.5,30.08,SE,141,0.0,0.0,68,0.00,,,0.03,Wunderground v.1.15,2013-06-20 02:20:00,
2013-06-19 22:25:00,63.0,52.7,30.08,SE,141,0.0,0.0,69,0.00,,,0.03,Wunderground v.1.15,2013-06-20 02:25:00,
2013-06-19 22:35:00,62.6,52.7,30.08,SE,141,0.0,0.0,70,0.00,,,0.03,Wunderground v.1.15,2013-06-20 02:35:00,
2013-06-19 22:40:00,62.5,53.0,30.09,SE,141,0.0,0.0,71,0.00,,,0.03,Wunderground v.1.15,2013-06-20 02:40:00,
2013-06-19 22:50:00,61.9,52.8,30.09,SE,141,0.0,0.0,72,0.00,,,0.03,Wunderground v.1.15,2013-06-20 02:50:00,
2013-06-19 22:55:00,61.7,52.6,30.09,SE,141,0.0,0.0,72,0.00,,,0.03,Wunderground v.1.15,2013-06-20 02:55:00,
2013-06-19 23:05:00,61.1,52.7,30.09,SE,141,0.0,0.0,74,0.00,,,0.03,Wunderground v.1.15,2013-06-20 03:05:00,
2013-06-19 23:10:00,60.9,52.9,30.09,SE,141,0.0,0.0,75,0.00,,,0.03,Wunderground v.1.15,2013-06-20 03:10:00,
2013-06-19 23:20:00,60.6,52.6,30.09,SE,141,0.0,0.0,75,0.00,,,0.03,Wunderground v.1.15,2013-06-20 03:20:00,
2013-06-19 23:25:00,60.5,52.9,30.10,SE,141,0.0,0.0,76,0.00,,,0.03,Wunderground v.1.15,2013-06-20 03:25:00,
2013-06-19 23:35:00,60.6,53.0,30.10,SE,141,0.0,0.0,76,0.00,,,0.03,Wunderground v.1.15,2013-06-20 03:35:00,
2013-06-19 23:40:00,60.6,53.0,30.10,SE,141,0.0,0.0,76,0.00,,,0.03,Wunderground v.1.15,2013-06-20 03:40:00,
2013-06-19 23:50:00,60.1,52.9,30.10,SE,141,0.0,0.0,77,0.00,,,0.03,Wunderground v.1.15,2013-06-20 03:50:00,
2013-06-19 23:55:00,60.0,53.1,30.10,SE,141,0.0,0.0,78,0.00,,,0.03,Wunderground v.1.15,2013-06-20 03:55:00,